TimeCDT,TemperatureF,Dew PointF,Humidity,Sea Level PressureIn,VisibilityMPH,Wind Direction,Wind SpeedMPH,Gust SpeedMPH,PrecipitationIn,Events,Conditions,WindDirDegrees,DateUTC
12:53 AM,28.9,21.0,72,30.38,10.0,North,18.4,25.3,N/A,,Overcast,10,2013-04-23 05:53:00
1:53 AM,28.9,21.9,75,30.38,10.0,North,15.0,-,N/A,,Overcast,350,2013-04-23 06:53:00
2:53 AM,28.0,21.9,78,30.35,10.0,North,13.8,24.2,N/A,,Overcast,360,2013-04-23 07:53:00
3:33 AM,26.6,19.4,74,30.27,10.0,North,15.0,-,N/A,,Scattered Clouds,350,2013-04-23 08:33:00
3:53 AM,27.0,19.9,75,30.36,10.0,North,11.5,-,N/A,,Clear,350,2013-04-23 08:53:00
4:53 AM,26.1,19.0,75,30.35,10.0,NNW,12.7,-,N/A,,Clear,340,2013-04-23 09:53:00
5:53 AM,25.0,19.0,78,30.34,10.0,NNW,12.7,-,N/A,,Clear,340,2013-04-23 10:53:00
6:53 AM,23.0,17.1,78,30.35,10.0,NNW,9.2,-,N/A,,Clear,340,2013-04-23 11:53:00
7:53 AM,23.0,18.0,81,30.36,10.0,NW,10.4,-,N/A,,Clear,320,2013-04-23 12:53:00
8:53 AM,24.1,18.0,77,30.36,10.0,NNW,15.0,-,N/A,,Clear,340,2013-04-23 13:53:00
9:53 AM,25.0,17.1,72,30.36,10.0,NNW,16.1,-,N/A,,Clear,340,2013-04-23 14:53:00
10:53 AM,27.0,17.1,66,30.35,10.0,NNW,19.6,-,N/A,,Clear,340,2013-04-23 15:53:00
11:53 AM,28.9,17.1,61,30.34,10.0,NNW,19.6,-,N/A,,Clear,330,2013-04-23 16:53:00
12:53 PM,30.0,17.1,59,30.32,10.0,North,18.4,-,N/A,,Clear,350,2013-04-23 17:53:00
1:53 PM,32.0,19.0,59,30.30,10.0,North,15.0,24.2,N/A,,Clear,350,2013-04-23 18:53:00
2:53 PM,33.1,21.0,61,30.28,10.0,North,12.7,-,N/A,,Partly Cloudy,350,2013-04-23 19:53:00
3:53 PM,35.1,21.9,59,30.27,10.0,North,11.5,-,N/A,,Mostly Cloudy,350,2013-04-23 20:53:00
4:53 PM,36.0,21.9,57,30.25,10.0,North,9.2,-,N/A,,Scattered Clouds,10,2013-04-23 21:53:00
5:53 PM,36.0,21.9,57,30.24,10.0,North,16.1,-,N/A,,Mostly Cloudy,10,2013-04-23 22:53:00
6:53 PM,36.0,21.0,55,30.24,10.0,North,9.2,-,N/A,,Partly Cloudy,360,2013-04-23 23:53:00
7:53 PM,35.1,23.0,61,30.24,10.0,North,5.8,-,N/A,,Clear,10,2013-04-24 00:53:00
8:53 PM,32.0,21.9,66,30.25,10.0,North,3.5,-,N/A,,Clear,10,2013-04-24 01:53:00
9:53 PM,27.0,21.0,78,30.27,10.0,WNW,3.5,-,N/A,,Clear,300,2013-04-24 02:53:00
10:53 PM,25.0,19.9,81,30.28,10.0,WNW,3.5,-,N/A,,Clear,300,2013-04-24 03:53:00
11:53 PM,25.0,19.9,81,30.27,10.0,Calm,Calm,-,N/A,,Clear,0,2013-04-24 04:53:00